sensor_id;sensor_type;location;lat;lon;timestamp;pressure;altitude;pressure_sealevel;temperature;humidity
37856;BME280;23694;43.274;26.924;2023-01-28T00:02:11;98236.13;;;0.79;100.00
37856;BME280;23694;43.274;26.924;2023-01-28T00:04:38;98252.50;;;0.78;100.00
37856;BME280;23694;43.274;26.924;2023-01-28T00:07:04;98241.16;;;0.82;100.00
37856;BME280;23694;43.274;26.924;2023-01-28T00:09:31;98243.28;;;0.73;100.00
37856;BME280;23694;43.274;26.924;2023-01-28T00:11:57;98248.63;;;0.68;100.00
37856;BME280;23694;43.274;26.924;2023-01-28T00:14:23;98260.47;;;0.72;100.00
37856;BME280;23694;43.274;26.924;2023-01-28T00:16:49;98250.25;;;0.71;100.00
37856;BME280;23694;43.274;26.924;2023-01-28T00:19:15;98256.16;;;0.73;100.00
37856;BME280;23694;43.274;26.924;2023-01-28T00:21:42;98264.91;;;0.69;100.00
37856;BME280;23694;43.274;26.924;2023-01-28T00:24:08;98267.00;;;0.81;100.00
37856;BME280;23694;43.274;26.924;2023-01-28T00:26:34;98262.56;;;0.84;100.00
37856;BME280;23694;43.274;26.924;2023-01-28T00:29:01;98264.25;;;0.85;100.00
37856;BME280;23694;43.274;26.924;2023-01-28T00:31:27;98266.94;;;0.82;100.00
37856;BME280;23694;43.274;26.924;2023-01-28T00:33:55;98268.44;;;0.88;100.00
37856;BME280;23694;43.274;26.924;2023-01-28T00:36:22;98271.31;;;1.02;100.00
37856;BME280;23694;43.274;26.924;2023-01-28T00:38:53;98282.69;;;0.97;100.00
37856;BME280;23694;43.274;26.924;2023-01-28T00:41:22;98289.53;;;0.98;100.00
37856;BME280;23694;43.274;26.924;2023-01-28T00:43:49;98288.75;;;0.95;100.00
37856;BME280;23694;43.274;26.924;2023-01-28T00:46:15;98285.66;;;0.87;100.00
37856;BME280;23694;43.274;26.924;2023-01-28T00:48:43;98285.78;;;0.84;100.00
37856;BME280;23694;43.274;26.924;2023-01-28T00:51:11;98294.09;;;0.91;100.00
37856;BME280;23694;43.274;26.924;2023-01-28T00:53:37;98294.34;;;0.85;100.00
37856;BME280;23694;43.274;26.924;2023-01-28T00:56:05;98286.56;;;0.86;100.00
37856;BME280;23694;43.274;26.924;2023-01-28T00:58:32;98285.78;;;0.84;100.00
37856;BME280;23694;43.274;26.924;2023-01-28T01:01:10;98294.22;;;0.88;100.00
37856;BME280;23694;43.274;26.924;2023-01-28T01:03:36;98297.41;;;0.94;100.00
37856;BME280;23694;43.274;26.924;2023-01-28T01:06:03;98295.97;;;0.87;100.00
37856;BME280;23694;43.274;26.924;2023-01-28T01:08:29;98295.91;;;0.89;100.00
37856;BME280;23694;43.274;26.924;2023-01-28T01:11:16;98297.75;;;0.85;100.00
37856;BME280;23694;43.274;26.924;2023-01-28T01:13:42;98300.75;;;0.75;99.96
37856;BME280;23694;43.274;26.924;2023-01-28T01:16:11;98306.31;;;0.64;99.36
37856;BME280;23694;43.274;26.924;2023-01-28T01:18:39;98303.34;;;0.75;99.96
37856;BME280;23694;43.274;26.924;2023-01-28T01:21:18;98312.41;;;0.85;100.00
37856;BME280;23694;43.274;26.924;2023-01-28T01:23:45;98313.94;;;0.89;100.00
37856;BME280;23694;43.274;26.924;2023-01-28T01:26:12;98304.84;;;0.80;100.00
37856;BME280;23694;43.274;26.924;2023-01-28T01:28:39;98315.31;;;0.98;100.00
37856;BME280;23694;43.274;26.924;2023-01-28T01:31:09;98316.94;;;0.78;100.00
37856;BME280;23694;43.274;26.924;2023-01-28T01:33:36;98319.22;;;0.86;100.00
37856;BME280;23694;43.274;26.924;2023-01-28T01:36:02;98320.91;;;0.65;100.00
37856;BME280;23694;43.274;26.924;2023-01-28T01:38:28;98323.84;;;0.54;100.00
37856;BME280;23694;43.274;26.924;2023-01-28T01:40:58;98328.28;;;0.51;100.00
37856;BME280;23694;43.274;26.924;2023-01-28T01:43:25;98328.41;;;0.48;100.00
37856;BME280;23694;43.274;26.924;2023-01-28T01:46:11;98324.59;;;0.58;100.00
37856;BME280;23694;43.274;26.924;2023-01-28T01:48:38;98330.03;;;0.50;100.00
37856;BME280;23694;43.274;26.924;2023-01-28T01:51:11;98330.97;;;0.48;100.00
37856;BME280;23694;43.274;26.924;2023-01-28T01:53:43;98335.25;;;0.49;100.00
37856;BME280;23694;43.274;26.924;2023-01-28T01:56:14;98337.75;;;0.50;100.00
37856;BME280;23694;43.274;26.924;2023-01-28T01:58:43;98331.88;;;0.47;100.00
37856;BME280;23694;43.274;26.924;2023-01-28T02:01:12;98326.66;;;0.48;99.31
37856;BME280;23694;43.274;26.924;2023-01-28T02:06:26;98342.06;;;0.50;98.64
37856;BME280;23694;43.274;26.924;2023-01-28T02:08:54;98340.06;;;0.35;98.92
37856;BME280;23694;43.274;26.924;2023-01-28T02:11:21;98346.13;;;0.34;100.00
37856;BME280;23694;43.274;26.924;2023-01-28T02:13:52;98340.19;;;0.31;100.00
37856;BME280;23694;43.274;26.924;2023-01-28T02:16:20;98343.31;;;0.40;100.00
37856;BME280;23694;43.274;26.924;2023-01-28T02:18:47;98349.81;;;0.26;100.00
37856;BME280;23694;43.274;26.924;2023-01-28T02:24:07;98352.38;;;0.50;100.00
37856;BME280;23694;43.274;26.924;2023-01-28T02:26:49;98361.00;;;0.49;100.00
37856;BME280;23694;43.274;26.924;2023-01-28T02:29:34;98361.28;;;0.41;100.00
37856;BME280;23694;43.274;26.924;2023-01-28T02:34:55;98366.59;;;0.13;100.00
37856;BME280;23694;43.274;26.924;2023-01-28T02:37:40;98369.41;;;0.07;100.00
37856;BME280;23694;43.274;26.924;2023-01-28T02:40:17;98375.94;;;0.16;100.00
37856;BME280;23694;43.274;26.924;2023-01-28T02:42:45;98364.31;;;0.06;100.00
37856;BME280;23694;43.274;26.924;2023-01-28T02:45:20;98371.75;;;0.13;100.00
37856;BME280;23694;43.274;26.924;2023-01-28T02:47:46;98363.03;;;0.17;100.00
37856;BME280;23694;43.274;26.924;2023-01-28T02:50:37;98375.16;;;0.14;100.00
37856;BME280;23694;43.274;26.924;2023-01-28T02:53:11;98371.75;;;0.13;100.00
37856;BME280;23694;43.274;26.924;2023-01-28T02:56:05;98378.38;;;0.20;100.00
37856;BME280;23694;43.274;26.924;2023-01-28T02:58:41;98380.00;;;0.23;100.00
37856;BME280;23694;43.274;26.924;2023-01-28T03:06:20;98394.28;;;0.31;99.20
37856;BME280;23694;43.274;26.924;2023-01-28T03:09:00;98387.09;;;0.16;99.47
37856;BME280;23694;43.274;26.924;2023-01-28T03:12:04;98389.63;;;0.18;99.51
37856;BME280;23694;43.274;26.924;2023-01-28T03:14:56;98391.28;;;0.19;98.56
37856;BME280;23694;43.274;26.924;2023-01-28T03:21:07;98389.44;;;-0.03;98.99
37856;BME280;23694;43.274;26.924;2023-01-28T03:23:58;98390.94;;;0.05;99.50
37856;BME280;23694;43.274;26.924;2023-01-28T03:27:05;98380.94;;;-0.05;99.70
37856;BME280;23694;43.274;26.924;2023-01-28T03:29:53;98386.44;;;-0.15;99.39
37856;BME280;23694;43.274;26.924;2023-01-28T03:32:40;98379.25;;;-0.06;99.48
37856;BME280;23694;43.274;26.924;2023-01-28T03:35:28;98377.13;;;0.07;99.05
37856;BME280;23694;43.274;26.924;2023-01-28T03:38:15;98385.75;;;0.06;98.53
37856;BME280;23694;43.274;26.924;2023-01-28T03:40:54;98385.63;;;0.09;97.88
37856;BME280;23694;43.274;26.924;2023-01-28T03:43:21;98387.38;;;0.09;97.95
37856;BME280;23694;43.274;26.924;2023-01-28T03:45:48;98388.41;;;0.03;98.88
37856;BME280;23694;43.274;26.924;2023-01-28T03:48:23;98383.84;;;0.11;98.60
37856;BME280;23694;43.274;26.924;2023-01-28T03:50:51;98384.41;;;-0.06;99.11
37856;BME280;23694;43.274;26.924;2023-01-28T03:53:18;98386.88;;;-0.03;98.77
37856;BME280;23694;43.274;26.924;2023-01-28T03:55:46;98383.28;;;0.03;98.12
37856;BME280;23694;43.274;26.924;2023-01-28T03:58:14;98386.91;;;-0.04;99.13
37856;BME280;23694;43.274;26.924;2023-01-28T04:00:41;98387.63;;;0.01;99.28
37856;BME280;23694;43.274;26.924;2023-01-28T04:03:09;98391.78;;;0.05;99.41
37856;BME280;23694;43.274;26.924;2023-01-28T04:06:07;98402.88;;;0.07;98.84
37856;BME280;23694;43.274;26.924;2023-01-28T04:08:31;98407.34;;;0.02;98.76
37856;BME280;23694;43.274;26.924;2023-01-28T04:10:58;98416.97;;;-0.05;98.95
37856;BME280;23694;43.274;26.924;2023-01-28T04:13:41;98413.78;;;-0.11;99.77
37856;BME280;23694;43.274;26.924;2023-01-28T04:16:07;98421.94;;;0.02;99.77
37856;BME280;23694;43.274;26.924;2023-01-28T04:18:34;98414.81;;;-0.17;99.81
37856;BME280;23694;43.274;26.924;2023-01-28T04:21:00;98420.06;;;-0.20;100.00
37856;BME280;23694;43.274;26.924;2023-01-28T04:23:26;98429.53;;;-0.20;100.00
37856;BME280;23694;43.274;26.924;2023-01-28T04:25:54;98437.56;;;-0.29;100.00
37856;BME280;23694;43.274;26.924;2023-01-28T04:28:20;98437.59;;;-0.31;100.00
37856;BME280;23694;43.274;26.924;2023-01-28T04:30:47;98433.34;;;-0.32;100.00
37856;BME280;23694;43.274;26.924;2023-01-28T04:33:13;98438.50;;;-0.32;100.00
37856;BME280;23694;43.274;26.924;2023-01-28T04:35:39;98441.91;;;-0.32;99.49
37856;BME280;23694;43.274;26.924;2023-01-28T04:38:06;98437.91;;;-0.40;99.87
37856;BME280;23694;43.274;26.924;2023-01-28T04:40:32;98444.88;;;-0.44;99.70
37856;BME280;23694;43.274;26.924;2023-01-28T04:42:58;98448.88;;;-0.35;99.51
37856;BME280;23694;43.274;26.924;2023-01-28T04:45:24;98439.47;;;-0.36;99.46
37856;BME280;23694;43.274;26.924;2023-01-28T04:47:50;98448.13;;;-0.39;98.59
37856;BME280;23694;43.274;26.924;2023-01-28T04:50:16;98455.06;;;-0.41;98.69
37856;BME280;23694;43.274;26.924;2023-01-28T04:52:42;98462.19;;;-0.22;98.07
37856;BME280;23694;43.274;26.924;2023-01-28T04:55:09;98452.75;;;-0.22;98.12
37856;BME280;23694;43.274;26.924;2023-01-28T04:57:36;98457.09;;;-0.24;97.43
37856;BME280;23694;43.274;26.924;2023-01-28T05:00:03;98465.22;;;-0.36;97.07
37856;BME280;23694;43.274;26.924;2023-01-28T05:02:30;98467.09;;;-0.41;97.55
37856;BME280;23694;43.274;26.924;2023-01-28T05:04:56;98476.59;;;-0.43;96.95
37856;BME280;23694;43.274;26.924;2023-01-28T05:07:22;98468.88;;;-0.43;96.40
37856;BME280;23694;43.274;26.924;2023-01-28T05:09:48;98481.53;;;-0.37;96.19
37856;BME280;23694;43.274;26.924;2023-01-28T05:12:14;98476.53;;;-0.42;96.29
37856;BME280;23694;43.274;26.924;2023-01-28T05:14:40;98472.34;;;-0.44;96.31
37856;BME280;23694;43.274;26.924;2023-01-28T05:17:06;98478.31;;;-0.44;95.71
37856;BME280;23694;43.274;26.924;2023-01-28T05:19:32;98482.38;;;-0.37;94.73
37856;BME280;23694;43.274;26.924;2023-01-28T05:21:58;98471.78;;;-0.54;94.95
37856;BME280;23694;43.274;26.924;2023-01-28T05:24:24;98480.34;;;-0.53;95.01
37856;BME280;23694;43.274;26.924;2023-01-28T05:26:50;98481.59;;;-0.39;95.91
37856;BME280;23694;43.274;26.924;2023-01-28T05:29:16;98484.34;;;-0.45;94.71
37856;BME280;23694;43.274;26.924;2023-01-28T05:31:42;98491.97;;;-0.42;94.32
37856;BME280;23694;43.274;26.924;2023-01-28T05:34:08;98496.38;;;-0.45;93.76
37856;BME280;23694;43.274;26.924;2023-01-28T05:36:35;98485.59;;;-0.56;93.50
37856;BME280;23694;43.274;26.924;2023-01-28T05:39:01;98498.56;;;-0.33;92.45
37856;BME280;23694;43.274;26.924;2023-01-28T05:41:27;98506.56;;;-0.42;92.94
37856;BME280;23694;43.274;26.924;2023-01-28T05:43:53;98499.47;;;-0.34;91.88
37856;BME280;23694;43.274;26.924;2023-01-28T05:46:20;98497.97;;;-0.41;92.10
37856;BME280;23694;43.274;26.924;2023-01-28T05:48:47;98506.66;;;-0.45;91.93
37856;BME280;23694;43.274;26.924;2023-01-28T05:51:15;98516.25;;;-0.50;92.62
37856;BME280;23694;43.274;26.924;2023-01-28T05:53:42;98517.28;;;-0.56;93.08
37856;BME280;23694;43.274;26.924;2023-01-28T05:56:08;98531.19;;;-0.61;93.47
37856;BME280;23694;43.274;26.924;2023-01-28T05:58:34;98538.06;;;-0.62;93.78
37856;BME280;23694;43.274;26.924;2023-01-28T06:01:00;98532.13;;;-0.64;93.00
37856;BME280;23694;43.274;26.924;2023-01-28T06:03:26;98539.31;;;-0.47;92.74
37856;BME280;23694;43.274;26.924;2023-01-28T06:05:52;98542.84;;;-0.50;93.09
37856;BME280;23694;43.274;26.924;2023-01-28T06:08:18;98546.09;;;-0.45;92.79
37856;BME280;23694;43.274;26.924;2023-01-28T06:10:45;98561.81;;;-0.54;93.12
37856;BME280;23694;43.274;26.924;2023-01-28T06:13:11;98560.31;;;-0.61;93.12
37856;BME280;23694;43.274;26.924;2023-01-28T06:15:37;98569.81;;;-0.63;93.37
37856;BME280;23694;43.274;26.924;2023-01-28T06:18:03;98572.72;;;-0.46;93.39
37856;BME280;23694;43.274;26.924;2023-01-28T06:20:29;98576.59;;;-0.60;93.96
37856;BME280;23694;43.274;26.924;2023-01-28T06:22:55;98568.13;;;-0.64;93.92
37856;BME280;23694;43.274;26.924;2023-01-28T06:25:21;98568.78;;;-0.57;93.48
37856;BME280;23694;43.274;26.924;2023-01-28T06:27:48;98579.38;;;-0.39;92.91
37856;BME280;23694;43.274;26.924;2023-01-28T06:30:14;98584.88;;;-0.51;91.71
37856;BME280;23694;43.274;26.924;2023-01-28T06:32:40;98570.16;;;-0.46;91.44
37856;BME280;23694;43.274;26.924;2023-01-28T06:35:07;98587.88;;;-0.37;91.46
37856;BME280;23694;43.274;26.924;2023-01-28T06:37:33;98593.78;;;-0.33;91.42
37856;BME280;23694;43.274;26.924;2023-01-28T06:39:59;98582.59;;;-0.32;91.51
37856;BME280;23694;43.274;26.924;2023-01-28T06:42:25;98591.78;;;-0.23;91.31
37856;BME280;23694;43.274;26.924;2023-01-28T06:44:51;98597.00;;;-0.26;91.66
37856;BME280;23694;43.274;26.924;2023-01-28T06:47:17;98604.13;;;-0.35;92.93
37856;BME280;23694;43.274;26.924;2023-01-28T06:49:43;98609.09;;;-0.28;92.16
37856;BME280;23694;43.274;26.924;2023-01-28T06:52:09;98604.69;;;-0.25;92.43
37856;BME280;23694;43.274;26.924;2023-01-28T06:54:35;98604.50;;;-0.19;92.68
37856;BME280;23694;43.274;26.924;2023-01-28T06:57:01;98607.16;;;-0.22;92.49
37856;BME280;23694;43.274;26.924;2023-01-28T06:59:27;98624.56;;;-0.30;92.70
37856;BME280;23694;43.274;26.924;2023-01-28T07:01:54;98617.31;;;-0.17;93.38
37856;BME280;23694;43.274;26.924;2023-01-28T07:04:20;98624.50;;;0.01;92.95
37856;BME280;23694;43.274;26.924;2023-01-28T07:06:46;98617.13;;;-0.11;92.39
37856;BME280;23694;43.274;26.924;2023-01-28T07:09:12;98629.44;;;-0.21;91.66
37856;BME280;23694;43.274;26.924;2023-01-28T07:11:38;98630.47;;;-0.26;92.79
37856;BME280;23694;43.274;26.924;2023-01-28T07:14:04;98633.00;;;-0.25;91.56
37856;BME280;23694;43.274;26.924;2023-01-28T07:16:30;98631.25;;;-0.24;91.38
37856;BME280;23694;43.274;26.924;2023-01-28T07:18:56;98638.09;;;-0.23;92.06
37856;BME280;23694;43.274;26.924;2023-01-28T07:21:22;98641.34;;;-0.17;92.02
37856;BME280;23694;43.274;26.924;2023-01-28T07:23:48;98647.31;;;-0.16;91.12
37856;BME280;23694;43.274;26.924;2023-01-28T07:26:14;98651.41;;;-0.09;92.60
37856;BME280;23694;43.274;26.924;2023-01-28T07:28:43;98641.16;;;-0.11;91.45
37856;BME280;23694;43.274;26.924;2023-01-28T07:31:10;98650.59;;;-0.11;90.82
37856;BME280;23694;43.274;26.924;2023-01-28T07:33:36;98644.59;;;-0.12;91.09
37856;BME280;23694;43.274;26.924;2023-01-28T07:36:02;98647.47;;;-0.21;90.24
37856;BME280;23694;43.274;26.924;2023-01-28T07:38:29;98654.06;;;-0.12;91.61
37856;BME280;23694;43.274;26.924;2023-01-28T07:40:55;98645.50;;;-0.13;90.96
37856;BME280;23694;43.274;26.924;2023-01-28T07:43:21;98648.91;;;-0.12;91.45
37856;BME280;23694;43.274;26.924;2023-01-28T07:45:47;98654.19;;;-0.17;92.09
37856;BME280;23694;43.274;26.924;2023-01-28T07:48:13;98657.56;;;-0.15;92.49
37856;BME280;23694;43.274;26.924;2023-01-28T07:50:39;98662.69;;;-0.13;91.61
37856;BME280;23694;43.274;26.924;2023-01-28T07:53:09;98660.81;;;-0.08;91.62
37856;BME280;23694;43.274;26.924;2023-01-28T07:55:36;98659.16;;;-0.11;92.42
37856;BME280;23694;43.274;26.924;2023-01-28T07:58:05;98659.81;;;-0.04;93.08
37856;BME280;23694;43.274;26.924;2023-01-28T08:00:33;98665.91;;;-0.07;92.07
37856;BME280;23694;43.274;26.924;2023-01-28T08:03:01;98669.38;;;-0.08;92.41
37856;BME280;23694;43.274;26.924;2023-01-28T08:05:37;98673.94;;;-0.47;93.67
37856;BME280;23694;43.274;26.924;2023-01-28T08:08:07;98671.13;;;-0.38;93.45
37856;BME280;23694;43.274;26.924;2023-01-28T08:10:33;98671.78;;;-0.31;93.43
37856;BME280;23694;43.274;26.924;2023-01-28T08:12:59;98669.47;;;-0.40;94.00
37856;BME280;23694;43.274;26.924;2023-01-28T08:15:27;98677.41;;;-0.48;94.21
37856;BME280;23694;43.274;26.924;2023-01-28T08:17:58;98679.63;;;-0.65;94.43
37856;BME280;23694;43.274;26.924;2023-01-28T08:20:26;98693.09;;;-0.57;94.85
37856;BME280;23694;43.274;26.924;2023-01-28T08:22:52;98686.28;;;-0.58;95.31
37856;BME280;23694;43.274;26.924;2023-01-28T08:25:19;98687.38;;;-0.68;95.39
37856;BME280;23694;43.274;26.924;2023-01-28T08:27:45;98685.22;;;-0.83;96.77
37856;BME280;23694;43.274;26.924;2023-01-28T08:30:11;98696.06;;;-0.72;97.09
37856;BME280;23694;43.274;26.924;2023-01-28T08:32:37;98699.59;;;-0.76;97.29
37856;BME280;23694;43.274;26.924;2023-01-28T08:35:04;98695.25;;;-0.74;98.25
37856;BME280;23694;43.274;26.924;2023-01-28T08:37:32;98698.03;;;-0.82;97.29
37856;BME280;23694;43.274;26.924;2023-01-28T08:39:58;98712.38;;;-0.73;96.53
37856;BME280;23694;43.274;26.924;2023-01-28T08:42:24;98706.31;;;-0.71;95.86
37856;BME280;23694;43.274;26.924;2023-01-28T08:44:50;98701.97;;;-0.69;96.41
37856;BME280;23694;43.274;26.924;2023-01-28T08:47:16;98703.59;;;-0.65;95.84
37856;BME280;23694;43.274;26.924;2023-01-28T08:49:42;98692.59;;;-0.71;96.36
37856;BME280;23694;43.274;26.924;2023-01-28T08:52:08;98695.84;;;-0.63;96.61
37856;BME280;23694;43.274;26.924;2023-01-28T08:54:35;98686.00;;;-0.49;95.95
37856;BME280;23694;43.274;26.924;2023-01-28T08:57:02;98687.16;;;-0.59;95.83
37856;BME280;23694;43.274;26.924;2023-01-28T08:59:28;98678.44;;;-0.53;96.39
37856;BME280;23694;43.274;26.924;2023-01-28T09:01:54;98686.91;;;-0.50;95.79
37856;BME280;23694;43.274;26.924;2023-01-28T09:04:20;98676.59;;;-0.50;96.08
37856;BME280;23694;43.274;26.924;2023-01-28T09:06:46;98679.22;;;-0.51;95.06
37856;BME280;23694;43.274;26.924;2023-01-28T09:09:12;98673.28;;;-0.53;95.29
37856;BME280;23694;43.274;26.924;2023-01-28T09:11:38;98680.34;;;-0.30;94.70
37856;BME280;23694;43.274;26.924;2023-01-28T09:14:04;98671.69;;;-0.28;94.70
37856;BME280;23694;43.274;26.924;2023-01-28T09:16:30;98661.72;;;-0.39;94.25
37856;BME280;23694;43.274;26.924;2023-01-28T09:18:56;98661.00;;;-0.44;94.50
37856;BME280;23694;43.274;26.924;2023-01-28T09:21:23;98660.13;;;-0.43;94.94
37856;BME280;23694;43.274;26.924;2023-01-28T09:23:49;98653.09;;;-0.38;94.40
37856;BME280;23694;43.274;26.924;2023-01-28T09:26:15;98662.63;;;-0.41;94.42
37856;BME280;23694;43.274;26.924;2023-01-28T09:28:41;98670.66;;;-0.22;94.97
37856;BME280;23694;43.274;26.924;2023-01-28T09:31:09;98674.94;;;-0.21;93.87
37856;BME280;23694;43.274;26.924;2023-01-28T09:33:37;98674.75;;;-0.15;92.52
37856;BME280;23694;43.274;26.924;2023-01-28T09:36:05;98681.94;;;-0.26;92.96
37856;BME280;23694;43.274;26.924;2023-01-28T09:38:32;98680.22;;;-0.26;93.24
37856;BME280;23694;43.274;26.924;2023-01-28T09:41:01;98685.19;;;-0.20;92.29
37856;BME280;23694;43.274;26.924;2023-01-28T09:46:04;98689.47;;;-0.20;93.42
37856;BME280;23694;43.274;26.924;2023-01-28T09:48:35;98690.09;;;-0.12;91.75
37856;BME280;23694;43.274;26.924;2023-01-28T09:51:07;98694.94;;;-0.02;91.19
37856;BME280;23694;43.274;26.924;2023-01-28T09:53:40;98697.50;;;0.00;89.49
37856;BME280;23694;43.274;26.924;2023-01-28T09:56:21;98698.56;;;-0.09;90.19
37856;BME280;23694;43.274;26.924;2023-01-28T09:58:50;98695.97;;;-0.07;89.81
37856;BME280;23694;43.274;26.924;2023-01-28T10:17:33;98687.09;;;0.03;91.26
37856;BME280;23694;43.274;26.924;2023-01-28T10:20:40;98688.09;;;-0.03;90.23
37856;BME280;23694;43.274;26.924;2023-01-28T10:23:09;98678.69;;;-0.04;89.67
37856;BME280;23694;43.274;26.924;2023-01-28T10:25:40;98672.97;;;-0.13;90.71
37856;BME280;23694;43.274;26.924;2023-01-28T10:28:18;98682.16;;;-0.05;91.31
37856;BME280;23694;43.274;26.924;2023-01-28T10:30:46;98683.50;;;0.09;91.71
37856;BME280;23694;43.274;26.924;2023-01-28T10:33:32;98696.28;;;0.12;92.26
37856;BME280;23694;43.274;26.924;2023-01-28T10:36:01;98682.19;;;0.23;91.79
37856;BME280;23694;43.274;26.924;2023-01-28T10:38:29;98693.53;;;0.18;90.45
37856;BME280;23694;43.274;26.924;2023-01-28T10:41:01;98681.53;;;0.17;90.36
37856;BME280;23694;43.274;26.924;2023-01-28T10:43:36;98690.34;;;0.10;91.13
37856;BME280;23694;43.274;26.924;2023-01-28T10:46:27;98672.25;;;0.11;90.10
37856;BME280;23694;43.274;26.924;2023-01-28T10:51:43;98675.28;;;-0.04;90.59
37856;BME280;23694;43.274;26.924;2023-01-28T10:54:22;98682.00;;;0.02;89.10
37856;BME280;23694;43.274;26.924;2023-01-28T10:56:52;98679.28;;;0.06;89.67
37856;BME280;23694;43.274;26.924;2023-01-28T10:59:25;98676.63;;;0.09;88.81
37856;BME280;23694;43.274;26.924;2023-01-28T11:02:00;98678.97;;;0.17;88.56
37856;BME280;23694;43.274;26.924;2023-01-28T11:04:34;98685.75;;;0.19;89.00
37856;BME280;23694;43.274;26.924;2023-01-28T11:07:16;98673.56;;;0.24;88.29
37856;BME280;23694;43.274;26.924;2023-01-28T11:09:47;98673.63;;;0.23;89.10
37856;BME280;23694;43.274;26.924;2023-01-28T11:12:22;98672.16;;;0.14;89.14
37856;BME280;23694;43.274;26.924;2023-01-28T11:14:56;98666.06;;;0.17;89.18
37856;BME280;23694;43.274;26.924;2023-01-28T11:17:25;98674.94;;;0.08;90.67
37856;BME280;23694;43.274;26.924;2023-01-28T11:19:54;98677.13;;;0.20;89.99
37856;BME280;23694;43.274;26.924;2023-01-28T11:22:32;98682.31;;;0.19;91.06
37856;BME280;23694;43.274;26.924;2023-01-28T11:25:02;98676.38;;;0.17;92.64
37856;BME280;23694;43.274;26.924;2023-01-28T11:27:30;98677.38;;;0.13;93.64
37856;BME280;23694;43.274;26.924;2023-01-28T11:30:00;98659.38;;;0.11;95.36
37856;BME280;23694;43.274;26.924;2023-01-28T11:32:29;98665.66;;;0.03;95.76
37856;BME280;23694;43.274;26.924;2023-01-28T11:34:56;98668.56;;;0.20;96.53
37856;BME280;23694;43.274;26.924;2023-01-28T11:37:25;98666.88;;;0.19;96.45
37856;BME280;23694;43.274;26.924;2023-01-28T11:40:17;98671.13;;;0.20;95.59
37856;BME280;23694;43.274;26.924;2023-01-28T11:42:46;98672.69;;;0.25;95.41
37856;BME280;23694;43.274;26.924;2023-01-28T11:45:19;98674.25;;;0.29;94.58
37856;BME280;23694;43.274;26.924;2023-01-28T11:53:41;98674.03;;;0.37;93.89
37856;BME280;23694;43.274;26.924;2023-01-28T12:04:44;98674.47;;;0.50;92.07
37856;BME280;23694;43.274;26.924;2023-01-28T12:07:20;98686.25;;;0.57;90.83
37856;BME280;23694;43.274;26.924;2023-01-28T12:09:57;98690.47;;;0.59;92.43
37856;BME280;23694;43.274;26.924;2023-01-28T12:18:00;98682.59;;;0.64;91.49
37856;BME280;23694;43.274;26.924;2023-01-28T12:20:38;98691.16;;;0.64;91.32
37856;BME280;23694;43.274;26.924;2023-01-28T12:34:58;98694.53;;;0.40;91.82
37856;BME280;23694;43.274;26.924;2023-01-28T12:37:51;98691.03;;;0.43;93.15
37856;BME280;23694;43.274;26.924;2023-01-28T12:43:15;98693.72;;;0.66;94.54
37856;BME280;23694;43.274;26.924;2023-01-28T12:45:50;98699.78;;;0.65;92.49
37856;BME280;23694;43.274;26.924;2023-01-28T12:50:56;98711.78;;;0.64;91.74
37856;BME280;23694;43.274;26.924;2023-01-28T12:56:15;98717.28;;;0.54;92.15
37856;BME280;23694;43.274;26.924;2023-01-28T13:01:17;98709.56;;;0.54;92.54
37856;BME280;23694;43.274;26.924;2023-01-28T13:06:46;98721.47;;;0.58;92.47
37856;BME280;23694;43.274;26.924;2023-01-28T13:09:18;98731.63;;;0.62;92.05
37856;BME280;23694;43.274;26.924;2023-01-28T13:11:46;98721.25;;;0.64;91.58
37856;BME280;23694;43.274;26.924;2023-01-28T13:14:13;98719.41;;;0.69;91.47
37856;BME280;23694;43.274;26.924;2023-01-28T13:16:40;98721.94;;;0.71;91.41
37856;BME280;23694;43.274;26.924;2023-01-28T13:19:35;98721.25;;;0.64;91.24
37856;BME280;23694;43.274;26.924;2023-01-28T13:22:23;98715.16;;;0.68;90.54
37856;BME280;23694;43.274;26.924;2023-01-28T13:24:50;98732.91;;;0.77;90.32
37856;BME280;23694;43.274;26.924;2023-01-28T13:27:30;98739.50;;;0.86;90.37
37856;BME280;23694;43.274;26.924;2023-01-28T13:30:23;98744.59;;;0.87;90.62
37856;BME280;23694;43.274;26.924;2023-01-28T13:33:04;98748.41;;;0.76;90.31
37856;BME280;23694;43.274;26.924;2023-01-28T13:35:36;98744.69;;;0.84;90.07
37856;BME280;23694;43.274;26.924;2023-01-28T13:38:16;98749.66;;;0.90;90.00
37856;BME280;23694;43.274;26.924;2023-01-28T13:40:43;98754.25;;;0.81;89.89
37856;BME280;23694;43.274;26.924;2023-01-28T13:45:57;98767.91;;;0.84;89.75
37856;BME280;23694;43.274;26.924;2023-01-28T13:50:58;98757.94;;;0.74;91.33
37856;BME280;23694;43.274;26.924;2023-01-28T13:56:08;98774.34;;;0.71;91.23
37856;BME280;23694;43.274;26.924;2023-01-28T14:01:52;98776.22;;;0.64;92.44
37856;BME280;23694;43.274;26.924;2023-01-28T14:10:18;98778.31;;;0.81;92.83
37856;BME280;23694;43.274;26.924;2023-01-28T14:18:09;98779.50;;;0.71;92.61
37856;BME280;23694;43.274;26.924;2023-01-28T14:20:43;98775.22;;;0.70;93.38
37856;BME280;23694;43.274;26.924;2023-01-28T14:23:16;98789.56;;;0.79;93.05
37856;BME280;23694;43.274;26.924;2023-01-28T14:28:55;98786.97;;;0.79;92.72
37856;BME280;23694;43.274;26.924;2023-01-28T14:31:31;98789.81;;;0.71;93.18
37856;BME280;23694;43.274;26.924;2023-01-28T14:34:21;98792.44;;;0.70;94.10
37856;BME280;23694;43.274;26.924;2023-01-28T14:36:50;98793.09;;;0.76;94.20
37856;BME280;23694;43.274;26.924;2023-01-28T14:39:20;98783.34;;;0.56;95.49
37856;BME280;23694;43.274;26.924;2023-01-28T14:41:49;98783.22;;;0.61;94.64
37856;BME280;23694;43.274;26.924;2023-01-28T14:44:47;98787.31;;;0.68;94.11
37856;BME280;23694;43.274;26.924;2023-01-28T14:53:22;98788.06;;;0.72;94.38
37856;BME280;23694;43.274;26.924;2023-01-28T14:58:39;98796.91;;;0.63;94.43
37856;BME280;23694;43.274;26.924;2023-01-28T15:01:22;98797.72;;;0.65;94.76
37856;BME280;23694;43.274;26.924;2023-01-28T15:03:49;98793.31;;;0.69;95.72
37856;BME280;23694;43.274;26.924;2023-01-28T15:06:18;98797.53;;;0.71;94.90
37856;BME280;23694;43.274;26.924;2023-01-28T15:08:46;98794.22;;;0.68;95.40